sensor_id;sensor_type;location;lat;lon;timestamp;P1;durP1;ratioP1;P2;durP2;ratioP2
12112;SDS011;6120;52.250;8.478;2024-03-02T00:01:20;14.68;;;7.43;;
12112;SDS011;6120;52.250;8.478;2024-03-02T00:03:47;13.50;;;7.53;;
12112;SDS011;6120;52.250;8.478;2024-03-02T00:06:14;13.40;;;6.15;;
12112;SDS011;6120;52.250;8.478;2024-03-02T00:08:41;11.57;;;6.57;;
12112;SDS011;6120;52.250;8.478;2024-03-02T00:11:07;10.18;;;6.10;;
12112;SDS011;6120;52.250;8.478;2024-03-02T00:13:34;10.90;;;6.25;;
12112;SDS011;6120;52.250;8.478;2024-03-02T00:16:02;11.57;;;6.10;;
12112;SDS011;6120;52.250;8.478;2024-03-02T00:18:35;11.73;;;6.47;;
12112;SDS011;6120;52.250;8.478;2024-03-02T00:21:02;11.07;;;6.47;;
12112;SDS011;6120;52.250;8.478;2024-03-02T00:23:30;14.00;;;7.00;;
12112;SDS011;6120;52.250;8.478;2024-03-02T00:25:58;13.05;;;7.22;;
12112;SDS011;6120;52.250;8.478;2024-03-02T00:28:36;12.88;;;7.22;;
12112;SDS011;6120;52.250;8.478;2024-03-02T00:31:04;11.05;;;6.75;;
12112;SDS011;6120;52.250;8.478;2024-03-02T00:33:35;14.23;;;6.78;;
12112;SDS011;6120;52.250;8.478;2024-03-02T00:36:04;12.23;;;7.32;;
12112;SDS011;6120;52.250;8.478;2024-03-02T00:38:31;11.88;;;6.70;;
12112;SDS011;6120;52.250;8.478;2024-03-02T00:40:59;13.23;;;7.25;;
12112;SDS011;6120;52.250;8.478;2024-03-02T00:46:18;11.65;;;6.70;;
12112;SDS011;6120;52.250;8.478;2024-03-02T00:48:59;12.55;;;7.20;;
12112;SDS011;6120;52.250;8.478;2024-03-02T00:51:46;12.50;;;6.60;;
12112;SDS011;6120;52.250;8.478;2024-03-02T00:54:35;11.30;;;6.53;;
12112;SDS011;6120;52.250;8.478;2024-03-02T00:57:02;12.05;;;6.72;;
12112;SDS011;6120;52.250;8.478;2024-03-02T00:59:29;11.73;;;7.57;;
12112;SDS011;6120;52.250;8.478;2024-03-02T01:01:58;12.38;;;7.38;;
12112;SDS011;6120;52.250;8.478;2024-03-02T01:04:24;11.77;;;7.07;;
12112;SDS011;6120;52.250;8.478;2024-03-02T01:06:51;11.93;;;7.10;;
12112;SDS011;6120;52.250;8.478;2024-03-02T01:09:18;13.88;;;8.02;;
12112;SDS011;6120;52.250;8.478;2024-03-02T01:11:45;12.32;;;7.00;;
12112;SDS011;6120;52.250;8.478;2024-03-02T01:14:12;15.57;;;8.07;;
12112;SDS011;6120;52.250;8.478;2024-03-02T01:16:38;10.80;;;6.72;;
12112;SDS011;6120;52.250;8.478;2024-03-02T01:19:05;12.68;;;7.32;;
12112;SDS011;6120;52.250;8.478;2024-03-02T01:21:32;13.75;;;6.97;;
12112;SDS011;6120;52.250;8.478;2024-03-02T01:23:59;11.50;;;6.95;;
12112;SDS011;6120;52.250;8.478;2024-03-02T01:26:25;11.73;;;6.85;;
12112;SDS011;6120;52.250;8.478;2024-03-02T01:28:52;12.63;;;6.88;;
12112;SDS011;6120;52.250;8.478;2024-03-02T01:31:19;13.02;;;6.78;;
12112;SDS011;6120;52.250;8.478;2024-03-02T01:33:45;12.55;;;7.05;;
12112;SDS011;6120;52.250;8.478;2024-03-02T01:36:12;11.05;;;6.63;;
12112;SDS011;6120;52.250;8.478;2024-03-02T01:38:39;12.38;;;6.38;;
12112;SDS011;6120;52.250;8.478;2024-03-02T01:41:06;11.45;;;6.97;;
12112;SDS011;6120;52.250;8.478;2024-03-02T01:43:33;11.18;;;6.80;;
12112;SDS011;6120;52.250;8.478;2024-03-02T01:46:02;11.80;;;6.78;;
12112;SDS011;6120;52.250;8.478;2024-03-02T01:48:29;11.80;;;7.13;;
12112;SDS011;6120;52.250;8.478;2024-03-02T01:50:55;12.30;;;6.80;;
12112;SDS011;6120;52.250;8.478;2024-03-02T01:53:22;10.80;;;6.38;;
12112;SDS011;6120;52.250;8.478;2024-03-02T01:55:50;12.57;;;7.03;;
12112;SDS011;6120;52.250;8.478;2024-03-02T01:58:17;11.18;;;6.75;;
12112;SDS011;6120;52.250;8.478;2024-03-02T02:00:43;11.95;;;6.25;;
12112;SDS011;6120;52.250;8.478;2024-03-02T02:06:59;14.48;;;7.25;;
12112;SDS011;6120;52.250;8.478;2024-03-02T02:09:26;12.75;;;7.60;;
12112;SDS011;6120;52.250;8.478;2024-03-02T02:11:53;11.40;;;7.03;;
12112;SDS011;6120;52.250;8.478;2024-03-02T02:14:20;11.98;;;7.07;;
12112;SDS011;6120;52.250;8.478;2024-03-02T02:16:46;12.77;;;7.50;;
12112;SDS011;6120;52.250;8.478;2024-03-02T02:19:13;12.40;;;6.90;;
12112;SDS011;6120;52.250;8.478;2024-03-02T02:21:43;13.90;;;7.53;;
12112;SDS011;6120;52.250;8.478;2024-03-02T02:24:10;11.23;;;6.70;;
12112;SDS011;6120;52.250;8.478;2024-03-02T02:26:37;13.13;;;8.20;;
12112;SDS011;6120;52.250;8.478;2024-03-02T02:29:04;13.15;;;7.53;;
12112;SDS011;6120;52.250;8.478;2024-03-02T02:31:40;11.68;;;7.22;;
12112;SDS011;6120;52.250;8.478;2024-03-02T02:34:07;14.05;;;6.90;;
12112;SDS011;6120;52.250;8.478;2024-03-02T02:36:37;10.80;;;6.70;;
12112;SDS011;6120;52.250;8.478;2024-03-02T02:39:06;11.68;;;7.35;;
12112;SDS011;6120;52.250;8.478;2024-03-02T02:41:35;12.80;;;7.45;;
12112;SDS011;6120;52.250;8.478;2024-03-02T02:44:01;13.00;;;7.63;;
12112;SDS011;6120;52.250;8.478;2024-03-02T02:46:45;13.13;;;7.35;;
12112;SDS011;6120;52.250;8.478;2024-03-02T02:49:12;12.32;;;7.00;;
12112;SDS011;6120;52.250;8.478;2024-03-02T02:51:39;14.00;;;7.28;;
12112;SDS011;6120;52.250;8.478;2024-03-02T02:54:06;11.40;;;7.13;;
12112;SDS011;6120;52.250;8.478;2024-03-02T02:56:32;12.73;;;7.38;;
12112;SDS011;6120;52.250;8.478;2024-03-02T02:58:59;13.68;;;7.60;;
12112;SDS011;6120;52.250;8.478;2024-03-02T03:01:26;11.32;;;6.70;;
12112;SDS011;6120;52.250;8.478;2024-03-02T03:03:53;13.13;;;7.10;;
12112;SDS011;6120;52.250;8.478;2024-03-02T03:06:20;13.57;;;7.63;;
12112;SDS011;6120;52.250;8.478;2024-03-02T03:08:46;12.50;;;7.28;;
12112;SDS011;6120;52.250;8.478;2024-03-02T03:11:13;14.95;;;7.65;;
12112;SDS011;6120;52.250;8.478;2024-03-02T03:13:40;16.33;;;7.88;;
12112;SDS011;6120;52.250;8.478;2024-03-02T03:16:07;14.48;;;8.10;;
12112;SDS011;6120;52.250;8.478;2024-03-02T03:18:34;13.70;;;7.80;;
12112;SDS011;6120;52.250;8.478;2024-03-02T03:21:00;12.85;;;7.78;;
12112;SDS011;6120;52.250;8.478;2024-03-02T03:23:27;13.32;;;8.02;;
12112;SDS011;6120;52.250;8.478;2024-03-02T03:25:54;15.77;;;8.48;;
12112;SDS011;6120;52.250;8.478;2024-03-02T03:28:20;15.57;;;8.25;;
12112;SDS011;6120;52.250;8.478;2024-03-02T03:30:47;15.45;;;8.35;;
12112;SDS011;6120;52.250;8.478;2024-03-02T03:33:14;15.57;;;9.15;;
12112;SDS011;6120;52.250;8.478;2024-03-02T03:35:41;15.18;;;8.70;;
12112;SDS011;6120;52.250;8.478;2024-03-02T03:38:07;17.52;;;9.48;;
12112;SDS011;6120;52.250;8.478;2024-03-02T03:40:34;16.02;;;8.15;;
12112;SDS011;6120;52.250;8.478;2024-03-02T03:43:01;15.48;;;8.68;;
12112;SDS011;6120;52.250;8.478;2024-03-02T03:45:27;15.25;;;9.27;;
12112;SDS011;6120;52.250;8.478;2024-03-02T03:47:54;14.50;;;8.45;;
12112;SDS011;6120;52.250;8.478;2024-03-02T03:50:21;14.32;;;8.60;;
12112;SDS011;6120;52.250;8.478;2024-03-02T03:52:48;13.15;;;7.63;;
12112;SDS011;6120;52.250;8.478;2024-03-02T03:55:15;14.02;;;8.00;;
12112;SDS011;6120;52.250;8.478;2024-03-02T03:57:42;13.80;;;8.10;;
12112;SDS011;6120;52.250;8.478;2024-03-02T04:00:08;14.27;;;7.93;;
12112;SDS011;6120;52.250;8.478;2024-03-02T04:02:36;14.68;;;8.15;;
12112;SDS011;6120;52.250;8.478;2024-03-02T04:05:03;13.90;;;7.85;;
12112;SDS011;6120;52.250;8.478;2024-03-02T04:07:35;15.48;;;8.07;;
12112;SDS011;6120;52.250;8.478;2024-03-02T04:10:10;17.60;;;8.88;;
12112;SDS011;6120;52.250;8.478;2024-03-02T04:12:37;13.90;;;8.10;;
12112;SDS011;6120;52.250;8.478;2024-03-02T04:15:04;12.02;;;8.00;;
12112;SDS011;6120;52.250;8.478;2024-03-02T04:17:32;14.18;;;8.40;;
12112;SDS011;6120;52.250;8.478;2024-03-02T04:20:00;14.55;;;8.30;;
12112;SDS011;6120;52.250;8.478;2024-03-02T04:22:27;13.85;;;7.80;;
12112;SDS011;6120;52.250;8.478;2024-03-02T04:24:54;13.10;;;7.82;;
12112;SDS011;6120;52.250;8.478;2024-03-02T04:27:21;14.57;;;8.18;;
12112;SDS011;6120;52.250;8.478;2024-03-02T04:29:48;15.57;;;8.43;;
12112;SDS011;6120;52.250;8.478;2024-03-02T04:32:15;12.95;;;7.57;;
12112;SDS011;6120;52.250;8.478;2024-03-02T04:34:41;13.18;;;8.38;;
12112;SDS011;6120;52.250;8.478;2024-03-02T04:37:09;14.68;;;8.15;;
12112;SDS011;6120;52.250;8.478;2024-03-02T04:39:38;12.65;;;7.68;;
12112;SDS011;6120;52.250;8.478;2024-03-02T04:42:05;13.82;;;8.25;;
12112;SDS011;6120;52.250;8.478;2024-03-02T04:44:31;14.48;;;9.07;;
12112;SDS011;6120;52.250;8.478;2024-03-02T04:46:58;14.23;;;8.52;;
12112;SDS011;6120;52.250;8.478;2024-03-02T04:49:25;14.85;;;8.45;;
12112;SDS011;6120;52.250;8.478;2024-03-02T04:51:52;15.77;;;8.93;;
12112;SDS011;6120;52.250;8.478;2024-03-02T04:54:19;15.48;;;9.00;;
12112;SDS011;6120;52.250;8.478;2024-03-02T04:56:45;15.40;;;9.13;;
12112;SDS011;6120;52.250;8.478;2024-03-02T04:59:21;16.38;;;9.27;;
12112;SDS011;6120;52.250;8.478;2024-03-02T05:01:47;17.38;;;9.43;;
12112;SDS011;6120;52.250;8.478;2024-03-02T05:04:14;17.60;;;9.40;;
12112;SDS011;6120;52.250;8.478;2024-03-02T05:06:41;18.08;;;10.50;;
12112;SDS011;6120;52.250;8.478;2024-03-02T05:09:08;17.38;;;10.10;;
12112;SDS011;6120;52.250;8.478;2024-03-02T05:11:35;16.35;;;9.52;;
12112;SDS011;6120;52.250;8.478;2024-03-02T05:14:05;17.55;;;9.93;;
12112;SDS011;6120;52.250;8.478;2024-03-02T05:16:33;15.23;;;9.00;;
12112;SDS011;6120;52.250;8.478;2024-03-02T05:19:00;18.38;;;9.38;;
12112;SDS011;6120;52.250;8.478;2024-03-02T05:21:27;17.15;;;9.70;;
12112;SDS011;6120;52.250;8.478;2024-03-02T05:23:54;17.40;;;9.95;;
12112;SDS011;6120;52.250;8.478;2024-03-02T05:26:20;18.98;;;10.40;;
12112;SDS011;6120;52.250;8.478;2024-03-02T05:28:47;17.13;;;9.63;;
12112;SDS011;6120;52.250;8.478;2024-03-02T05:31:17;18.92;;;10.85;;
12112;SDS011;6120;52.250;8.478;2024-03-02T05:33:43;15.38;;;9.35;;
12112;SDS011;6120;52.250;8.478;2024-03-02T05:36:10;20.17;;;10.70;;
12112;SDS011;6120;52.250;8.478;2024-03-02T05:38:37;17.92;;;10.35;;
12112;SDS011;6120;52.250;8.478;2024-03-02T05:41:04;21.58;;;10.85;;
12112;SDS011;6120;52.250;8.478;2024-03-02T05:43:31;19.33;;;10.35;;
12112;SDS011;6120;52.250;8.478;2024-03-02T05:45:58;17.63;;;10.38;;
12112;SDS011;6120;52.250;8.478;2024-03-02T05:48:24;18.60;;;10.75;;
12112;SDS011;6120;52.250;8.478;2024-03-02T05:50:51;17.10;;;9.95;;
12112;SDS011;6120;52.250;8.478;2024-03-02T05:53:17;18.95;;;10.65;;
12112;SDS011;6120;52.250;8.478;2024-03-02T05:55:44;20.35;;;11.48;;
12112;SDS011;6120;52.250;8.478;2024-03-02T05:58:11;22.02;;;11.80;;
12112;SDS011;6120;52.250;8.478;2024-03-02T06:00:38;19.70;;;10.88;;
12112;SDS011;6120;52.250;8.478;2024-03-02T06:03:05;18.15;;;10.45;;
12112;SDS011;6120;52.250;8.478;2024-03-02T06:05:32;20.15;;;11.38;;
12112;SDS011;6120;52.250;8.478;2024-03-02T06:07:59;19.60;;;10.63;;
12112;SDS011;6120;52.250;8.478;2024-03-02T06:10:25;17.35;;;10.85;;
12112;SDS011;6120;52.250;8.478;2024-03-02T06:12:52;20.75;;;11.48;;
12112;SDS011;6120;52.250;8.478;2024-03-02T06:15:19;18.23;;;10.30;;
12112;SDS011;6120;52.250;8.478;2024-03-02T06:17:45;19.55;;;10.05;;
12112;SDS011;6120;52.250;8.478;2024-03-02T06:20:12;22.10;;;10.93;;
12112;SDS011;6120;52.250;8.478;2024-03-02T06:22:39;18.35;;;9.65;;
12112;SDS011;6120;52.250;8.478;2024-03-02T06:25:05;20.92;;;11.73;;
12112;SDS011;6120;52.250;8.478;2024-03-02T06:27:33;19.30;;;11.20;;
12112;SDS011;6120;52.250;8.478;2024-03-02T06:29:59;22.83;;;11.10;;
12112;SDS011;6120;52.250;8.478;2024-03-02T06:32:26;17.27;;;9.73;;
12112;SDS011;6120;52.250;8.478;2024-03-02T06:34:53;18.17;;;10.18;;
12112;SDS011;6120;52.250;8.478;2024-03-02T06:37:20;17.42;;;10.35;;
12112;SDS011;6120;52.250;8.478;2024-03-02T06:39:46;19.42;;;10.32;;
12112;SDS011;6120;52.250;8.478;2024-03-02T06:42:13;19.25;;;10.50;;
12112;SDS011;6120;52.250;8.478;2024-03-02T06:44:40;21.58;;;11.90;;
12112;SDS011;6120;52.250;8.478;2024-03-02T06:47:07;20.33;;;10.80;;
12112;SDS011;6120;52.250;8.478;2024-03-02T06:49:33;20.77;;;11.15;;
12112;SDS011;6120;52.250;8.478;2024-03-02T06:52:01;19.17;;;11.20;;
12112;SDS011;6120;52.250;8.478;2024-03-02T06:54:28;21.80;;;11.27;;
12112;SDS011;6120;52.250;8.478;2024-03-02T06:56:55;19.08;;;10.45;;
12112;SDS011;6120;52.250;8.478;2024-03-02T06:59:21;21.77;;;11.00;;
12112;SDS011;6120;52.250;8.478;2024-03-02T07:01:48;18.05;;;10.30;;
12112;SDS011;6120;52.250;8.478;2024-03-02T07:04:15;20.65;;;11.77;;
12112;SDS011;6120;52.250;8.478;2024-03-02T07:06:41;18.80;;;10.32;;
12112;SDS011;6120;52.250;8.478;2024-03-02T07:09:08;22.52;;;11.50;;
12112;SDS011;6120;52.250;8.478;2024-03-02T07:11:37;22.00;;;12.00;;
12112;SDS011;6120;52.250;8.478;2024-03-02T07:14:03;22.45;;;11.80;;
12112;SDS011;6120;52.250;8.478;2024-03-02T07:16:30;21.60;;;11.50;;
12112;SDS011;6120;52.250;8.478;2024-03-02T07:18:59;19.88;;;11.02;;
12112;SDS011;6120;52.250;8.478;2024-03-02T07:21:28;22.75;;;11.55;;
12112;SDS011;6120;52.250;8.478;2024-03-02T07:23:55;22.27;;;11.25;;
12112;SDS011;6120;52.250;8.478;2024-03-02T07:26:21;22.83;;;11.77;;
12112;SDS011;6120;52.250;8.478;2024-03-02T07:28:52;20.10;;;11.23;;
12112;SDS011;6120;52.250;8.478;2024-03-02T07:31:24;21.30;;;12.57;;
12112;SDS011;6120;52.250;8.478;2024-03-02T07:33:50;19.77;;;11.05;;
12112;SDS011;6120;52.250;8.478;2024-03-02T07:36:17;24.08;;;11.85;;
12112;SDS011;6120;52.250;8.478;2024-03-02T07:38:45;22.25;;;11.88;;
12112;SDS011;6120;52.250;8.478;2024-03-02T07:41:12;24.13;;;12.68;;
12112;SDS011;6120;52.250;8.478;2024-03-02T07:43:39;25.02;;;12.32;;
12112;SDS011;6120;52.250;8.478;2024-03-02T07:46:06;22.95;;;12.50;;
12112;SDS011;6120;52.250;8.478;2024-03-02T07:48:33;22.45;;;11.82;;
12112;SDS011;6120;52.250;8.478;2024-03-02T07:51:00;25.35;;;13.48;;
12112;SDS011;6120;52.250;8.478;2024-03-02T07:53:28;25.08;;;13.02;;
12112;SDS011;6120;52.250;8.478;2024-03-02T07:55:55;21.23;;;12.05;;
12112;SDS011;6120;52.250;8.478;2024-03-02T07:58:28;21.40;;;11.07;;
12112;SDS011;6120;52.250;8.478;2024-03-02T08:00:55;21.70;;;13.05;;
12112;SDS011;6120;52.250;8.478;2024-03-02T08:03:22;23.27;;;12.40;;
12112;SDS011;6120;52.250;8.478;2024-03-02T08:05:49;26.77;;;15.10;;
12112;SDS011;6120;52.250;8.478;2024-03-02T08:08:15;28.65;;;14.60;;
12112;SDS011;6120;52.250;8.478;2024-03-02T08:10:42;23.27;;;12.32;;
12112;SDS011;6120;52.250;8.478;2024-03-02T08:13:09;25.15;;;13.13;;
12112;SDS011;6120;52.250;8.478;2024-03-02T08:15:35;21.20;;;11.60;;
12112;SDS011;6120;52.250;8.478;2024-03-02T08:18:02;22.40;;;12.25;;
12112;SDS011;6120;52.250;8.478;2024-03-02T08:20:29;24.42;;;12.48;;
12112;SDS011;6120;52.250;8.478;2024-03-02T08:22:56;20.55;;;11.85;;
12112;SDS011;6120;52.250;8.478;2024-03-02T08:25:22;22.00;;;12.25;;
12112;SDS011;6120;52.250;8.478;2024-03-02T08:27:49;20.25;;;11.40;;
12112;SDS011;6120;52.250;8.478;2024-03-02T08:30:16;22.42;;;12.48;;
12112;SDS011;6120;52.250;8.478;2024-03-02T08:32:44;21.15;;;12.05;;
12112;SDS011;6120;52.250;8.478;2024-03-02T08:35:13;20.98;;;11.30;;
12112;SDS011;6120;52.250;8.478;2024-03-02T08:37:41;20.48;;;11.25;;
12112;SDS011;6120;52.250;8.478;2024-03-02T08:42:35;18.75;;;10.38;;
12112;SDS011;6120;52.250;8.478;2024-03-02T08:45:02;19.20;;;10.88;;
12112;SDS011;6120;52.250;8.478;2024-03-02T08:47:29;20.10;;;10.98;;
12112;SDS011;6120;52.250;8.478;2024-03-02T08:49:56;18.83;;;10.25;;
12112;SDS011;6120;52.250;8.478;2024-03-02T08:52:27;20.67;;;11.15;;
12112;SDS011;6120;52.250;8.478;2024-03-02T08:54:53;20.25;;;11.07;;
12112;SDS011;6120;52.250;8.478;2024-03-02T08:57:20;17.50;;;9.70;;
12112;SDS011;6120;52.250;8.478;2024-03-02T08:59:47;19.92;;;10.50;;
12112;SDS011;6120;52.250;8.478;2024-03-02T09:02:14;20.05;;;10.15;;
12112;SDS011;6120;52.250;8.478;2024-03-02T09:04:41;21.92;;;10.60;;
12112;SDS011;6120;52.250;8.478;2024-03-02T09:07:07;22.63;;;10.38;;
12112;SDS011;6120;52.250;8.478;2024-03-02T09:09:34;18.38;;;10.88;;
12112;SDS011;6120;52.250;8.478;2024-03-02T09:12:01;18.48;;;9.82;;
12112;SDS011;6120;52.250;8.478;2024-03-02T09:14:28;17.92;;;9.73;;
12112;SDS011;6120;52.250;8.478;2024-03-02T09:16:54;17.23;;;9.63;;
12112;SDS011;6120;52.250;8.478;2024-03-02T09:19:21;19.20;;;10.05;;
12112;SDS011;6120;52.250;8.478;2024-03-02T09:21:48;19.10;;;10.57;;
12112;SDS011;6120;52.250;8.478;2024-03-02T09:24:15;18.63;;;10.32;;
12112;SDS011;6120;52.250;8.478;2024-03-02T09:26:43;16.17;;;9.60;;
12112;SDS011;6120;52.250;8.478;2024-03-02T09:29:10;14.85;;;8.55;;
12112;SDS011;6120;52.250;8.478;2024-03-02T09:31:40;18.90;;;9.65;;
12112;SDS011;6120;52.250;8.478;2024-03-02T09:34:07;16.17;;;9.02;;
12112;SDS011;6120;52.250;8.478;2024-03-02T09:36:34;16.38;;;9.23;;
12112;SDS011;6120;52.250;8.478;2024-03-02T09:39:01;14.57;;;8.35;;
12112;SDS011;6120;52.250;8.478;2024-03-02T09:41:30;15.00;;;8.68;;
12112;SDS011;6120;52.250;8.478;2024-03-02T09:43:57;13.02;;;7.65;;
12112;SDS011;6120;52.250;8.478;2024-03-02T09:46:24;11.17;;;6.83;;
12112;SDS011;6120;52.250;8.478;2024-03-02T09:48:51;11.93;;;7.15;;
12112;SDS011;6120;52.250;8.478;2024-03-02T09:51:18;11.50;;;6.75;;
12112;SDS011;6120;52.250;8.478;2024-03-02T09:53:46;11.77;;;6.80;;
12112;SDS011;6120;52.250;8.478;2024-03-02T09:56:13;11.50;;;6.83;;
12112;SDS011;6120;52.250;8.478;2024-03-02T09:58:42;11.27;;;6.60;;
12112;SDS011;6120;52.250;8.478;2024-03-02T10:01:10;13.48;;;7.50;;
12112;SDS011;6120;52.250;8.478;2024-03-02T10:03:37;12.43;;;6.90;;
12112;SDS011;6120;52.250;8.478;2024-03-02T10:06:22;12.65;;;7.28;;
12112;SDS011;6120;52.250;8.478;2024-03-02T10:08:50;12.52;;;6.75;;
12112;SDS011;6120;52.250;8.478;2024-03-02T10:11:25;11.20;;;6.28;;
12112;SDS011;6120;52.250;8.478;2024-03-02T10:16:42;12.50;;;7.00;;
12112;SDS011;6120;52.250;8.478;2024-03-02T10:19:20;12.75;;;6.45;;
12112;SDS011;6120;52.250;8.478;2024-03-02T10:21:48;10.43;;;5.43;;
12112;SDS011;6120;52.250;8.478;2024-03-02T10:24:20;12.35;;;5.28;;
12112;SDS011;6120;52.250;8.478;2024-03-02T10:29:14;8.35;;;5.03;;
12112;SDS011;6120;52.250;8.478;2024-03-02T10:31:42;8.05;;;4.50;;
12112;SDS011;6120;52.250;8.478;2024-03-02T10:34:10;7.25;;;3.88;;
12112;SDS011;6120;52.250;8.478;2024-03-02T10:36:40;8.30;;;4.30;;
12112;SDS011;6120;52.250;8.478;2024-03-02T10:39:08;8.45;;;4.15;;
12112;SDS011;6120;52.250;8.478;2024-03-02T10:41:35;7.30;;;4.10;;
12112;SDS011;6120;52.250;8.478;2024-03-02T10:44:04;8.50;;;4.35;;
12112;SDS011;6120;52.250;8.478;2024-03-02T10:46:35;8.68;;;4.20;;
12112;SDS011;6120;52.250;8.478;2024-03-02T10:49:03;8.50;;;4.80;;
12112;SDS011;6120;52.250;8.478;2024-03-02T10:51:34;7.63;;;4.15;;
12112;SDS011;6120;52.250;8.478;2024-03-02T10:54:03;9.88;;;4.30;;
12112;SDS011;6120;52.250;8.478;2024-03-02T10:56:32;8.73;;;4.33;;
12112;SDS011;6120;52.250;8.478;2024-03-02T10:59:03;5.43;;;3.28;;
12112;SDS011;6120;52.250;8.478;2024-03-02T11:01:38;5.55;;;2.97;;
12112;SDS011;6120;52.250;8.478;2024-03-02T11:04:07;6.35;;;3.30;;
12112;SDS011;6120;52.250;8.478;2024-03-02T11:06:35;5.43;;;2.97;;
12112;SDS011;6120;52.250;8.478;2024-03-02T11:09:06;7.38;;;3.00;;
12112;SDS011;6120;52.250;8.478;2024-03-02T11:11:40;6.10;;;3.08;;
12112;SDS011;6120;52.250;8.478;2024-03-02T11:14:10;6.00;;;2.97;;
12112;SDS011;6120;52.250;8.478;2024-03-02T11:16:40;6.80;;;3.17;;
12112;SDS011;6120;52.250;8.478;2024-03-02T11:19:11;6.82;;;3.03;;
12112;SDS011;6120;52.250;8.478;2024-03-02T11:21:42;6.25;;;3.05;;
12112;SDS011;6120;52.250;8.478;2024-03-02T11:27:04;5.88;;;3.40;;
12112;SDS011;6120;52.250;8.478;2024-03-02T11:32:02;5.28;;;3.10;;
12112;SDS011;6120;52.250;8.478;2024-03-02T11:34:30;4.60;;;2.78;;
12112;SDS011;6120;52.250;8.478;2024-03-02T11:37:03;4.53;;;2.83;;
12112;SDS011;6120;52.250;8.478;2024-03-02T11:39:30;5.25;;;2.95;;
12112;SDS011;6120;52.250;8.478;2024-03-02T11:41:57;5.53;;;2.75;;
12112;SDS011;6120;52.250;8.478;2024-03-02T11:44:26;4.65;;;2.78;;
12112;SDS011;6120;52.250;8.478;2024-03-02T11:46:59;4.72;;;2.95;;
12112;SDS011;6120;52.250;8.478;2024-03-02T11:49:36;4.78;;;2.75;;
12112;SDS011;6120;52.250;8.478;2024-03-02T11:52:07;5.00;;;2.90;;
12112;SDS011;6120;52.250;8.478;2024-03-02T11:54:39;5.28;;;3.10;;
12112;SDS011;6120;52.250;8.478;2024-03-02T11:57:07;5.25;;;3.38;;
12112;SDS011;6120;52.250;8.478;2024-03-02T11:59:34;7.03;;;3.03;;
12112;SDS011;6120;52.250;8.478;2024-03-02T12:02:01;6.15;;;3.35;;
12112;SDS011;6120;52.250;8.478;2024-03-02T12:04:29;5.33;;;3.27;;
12112;SDS011;6120;52.250;8.478;2024-03-02T12:06:58;5.55;;;2.97;;
12112;SDS011;6120;52.250;8.478;2024-03-02T12:09:27;5.85;;;2.72;;
12112;SDS011;6120;52.250;8.478;2024-03-02T12:14:35;5.80;;;2.30;;
12112;SDS011;6120;52.250;8.478;2024-03-02T12:17:03;5.03;;;2.83;;
12112;SDS011;6120;52.250;8.478;2024-03-02T12:19:31;4.65;;;2.95;;
12112;SDS011;6120;52.250;8.478;2024-03-02T12:21:58;4.57;;;2.83;;
12112;SDS011;6120;52.250;8.478;2024-03-02T12:24:27;4.45;;;2.90;;
12112;SDS011;6120;52.250;8.478;2024-03-02T12:26:54;7.30;;;3.30;;
12112;SDS011;6120;52.250;8.478;2024-03-02T12:29:21;4.10;;;2.20;;
12112;SDS011;6120;52.250;8.478;2024-03-02T12:31:49;4.47;;;2.40;;
12112;SDS011;6120;52.250;8.478;2024-03-02T12:34:17;3.38;;;2.05;;
12112;SDS011;6120;52.250;8.478;2024-03-02T12:36:44;3.97;;;2.23;;
12112;SDS011;6120;52.250;8.478;2024-03-02T12:39:13;3.70;;;2.03;;
12112;SDS011;6120;52.250;8.478;2024-03-02T12:41:40;4.18;;;2.38;;
12112;SDS011;6120;52.250;8.478;2024-03-02T12:44:07;4.10;;;2.25;;
12112;SDS011;6120;52.250;8.478;2024-03-02T12:46:34;4.32;;;2.22;;
12112;SDS011;6120;52.250;8.478;2024-03-02T12:49:07;4.57;;;2.58;;
12112;SDS011;6120;52.250;8.478;2024-03-02T12:51:37;6.97;;;3.42;;
12112;SDS011;6120;52.250;8.478;2024-03-02T12:54:07;5.28;;;3.08;;
12112;SDS011;6120;52.250;8.478;2024-03-02T12:56:35;6.82;;;3.85;;
12112;SDS011;6120;52.250;8.478;2024-03-02T12:59:04;5.32;;;2.95;;
12112;SDS011;6120;52.250;8.478;2024-03-02T13:01:31;6.18;;;3.47;;
12112;SDS011;6120;52.250;8.478;2024-03-02T13:03:58;6.25;;;3.05;;
12112;SDS011;6120;52.250;8.478;2024-03-02T13:06:25;6.45;;;3.20;;
12112;SDS011;6120;52.250;8.478;2024-03-02T13:08:55;7.07;;;3.65;;
12112;SDS011;6120;52.250;8.478;2024-03-02T13:11:22;6.05;;;3.28;;
12112;SDS011;6120;52.250;8.478;2024-03-02T13:13:51;6.85;;;3.60;;
12112;SDS011;6120;52.250;8.478;2024-03-02T13:16:18;5.95;;;3.50;;
12112;SDS011;6120;52.250;8.478;2024-03-02T13:18:55;5.68;;;2.85;;
12112;SDS011;6120;52.250;8.478;2024-03-02T13:21:22;9.95;;;3.65;;
12112;SDS011;6120;52.250;8.478;2024-03-02T13:23:48;7.47;;;3.63;;
12112;SDS011;6120;52.250;8.478;2024-03-02T13:26:15;6.43;;;3.45;;
12112;SDS011;6120;52.250;8.478;2024-03-02T13:28:43;6.87;;;3.30;;
12112;SDS011;6120;52.250;8.478;2024-03-02T13:31:09;5.72;;;3.30;;
12112;SDS011;6120;52.250;8.478;2024-03-02T13:33:36;6.57;;;2.90;;
12112;SDS011;6120;52.250;8.478;2024-03-02T13:36:03;6.57;;;3.40;;
12112;SDS011;6120;52.250;8.478;2024-03-02T13:38:30;5.63;;;3.05;;
12112;SDS011;6120;52.250;8.478;2024-03-02T13:40:56;6.65;;;3.05;;
12112;SDS011;6120;52.250;8.478;2024-03-02T13:43:23;5.78;;;3.30;;
12112;SDS011;6120;52.250;8.478;2024-03-02T13:45:50;8.10;;;2.92;;
12112;SDS011;6120;52.250;8.478;2024-03-02T13:48:18;5.80;;;3.10;;
12112;SDS011;6120;52.250;8.478;2024-03-02T13:50:46;4.43;;;2.63;;
12112;SDS011;6120;52.250;8.478;2024-03-02T13:53:12;5.25;;;3.15;;
12112;SDS011;6120;52.250;8.478;2024-03-02T13:55:39;5.72;;;2.90;;
12112;SDS011;6120;52.250;8.478;2024-03-02T13:58:08;5.95;;;3.30;;
12112;SDS011;6120;52.250;8.478;2024-03-02T14:00:35;5.65;;;3.20;;
12112;SDS011;6120;52.250;8.478;2024-03-02T14:03:02;6.32;;;3.42;;
12112;SDS011;6120;52.250;8.478;2024-03-02T14:05:29;6.20;;;3.13;;
12112;SDS011;6120;52.250;8.478;2024-03-02T14:07:56;5.50;;;2.83;;
12112;SDS011;6120;52.250;8.478;2024-03-02T14:10:23;6.18;;;3.20;;
12112;SDS011;6120;52.250;8.478;2024-03-02T14:12:49;6.95;;;2.95;;
12112;SDS011;6120;52.250;8.478;2024-03-02T14:15:16;7.80;;;2.80;;
12112;SDS011;6120;52.250;8.478;2024-03-02T14:17:46;6.32;;;2.90;;
12112;SDS011;6120;52.250;8.478;2024-03-02T14:20:13;5.93;;;2.60;;
12112;SDS011;6120;52.250;8.478;2024-03-02T14:22:40;5.65;;;2.60;;
12112;SDS011;6120;52.250;8.478;2024-03-02T14:25:06;3.80;;;2.40;;
12112;SDS011;6120;52.250;8.478;2024-03-02T14:27:34;5.28;;;2.60;;
12112;SDS011;6120;52.250;8.478;2024-03-02T14:30:21;4.60;;;2.33;;
12112;SDS011;6120;52.250;8.478;2024-03-02T14:32:48;3.83;;;2.30;;
12112;SDS011;6120;52.250;8.478;2024-03-02T14:35:15;3.53;;;2.10;;
12112;SDS011;6120;52.250;8.478;2024-03-02T14:37:41;4.25;;;2.08;;
12112;SDS011;6120;52.250;8.478;2024-03-02T14:40:08;4.03;;;2.05;;
12112;SDS011;6120;52.250;8.478;2024-03-02T14:42:36;4.30;;;2.60;;
12112;SDS011;6120;52.250;8.478;2024-03-02T14:45:03;3.30;;;2.05;;
12112;SDS011;6120;52.250;8.478;2024-03-02T14:47:31;4.40;;;2.05;;
12112;SDS011;6120;52.250;8.478;2024-03-02T14:49:59;7.10;;;2.40;;
12112;SDS011;6120;52.250;8.478;2024-03-02T14:52:26;3.90;;;2.10;;
12112;SDS011;6120;52.250;8.478;2024-03-02T14:54:53;4.15;;;2.00;;
12112;SDS011;6120;52.250;8.478;2024-03-02T14:57:19;4.13;;;1.90;;
12112;SDS011;6120;52.250;8.478;2024-03-02T14:59:46;3.30;;;1.80;;
12112;SDS011;6120;52.250;8.478;2024-03-02T15:02:13;5.13;;;2.00;;
12112;SDS011;6120;52.250;8.478;2024-03-02T15:04:39;3.50;;;1.70;;
12112;SDS011;6120;52.250;8.478;2024-03-02T15:07:06;3.35;;;1.80;;
12112;SDS011;6120;52.250;8.478;2024-03-02T15:09:33;3.25;;;1.30;;
12112;SDS011;6120;52.250;8.478;2024-03-02T15:12:02;2.72;;;1.55;;
12112;SDS011;6120;52.250;8.478;2024-03-02T15:14:29;2.78;;;1.77;;